createdAt,value
2022-09-23T00:02:16.728Z,1.27
2022-09-23T00:05:04.007Z,1.40
2022-09-23T00:07:50.931Z,1.20
2022-09-23T00:10:39.694Z,1.20
2022-09-23T00:13:26.656Z,1.40
2022-09-23T00:16:17.093Z,1.20
2022-09-23T00:19:04.609Z,1.50
2022-09-23T00:21:51.818Z,1.20
2022-09-23T00:24:39.692Z,1.30
2022-09-23T00:27:26.725Z,1.30
2022-09-23T00:30:13.737Z,1.30
2022-09-23T00:33:00.647Z,1.10
2022-09-23T00:35:47.742Z,1.10
2022-09-23T00:38:34.684Z,1.50
2022-09-23T00:41:22.153Z,1.20
2022-09-23T00:44:41.929Z,1.60
2022-09-23T00:47:44.455Z,1.20
2022-09-23T00:50:36.083Z,1.00
2022-09-23T00:53:26.490Z,1.30
2022-09-23T00:56:14.781Z,1.10
2022-09-23T00:59:02.391Z,1.33
2022-09-23T01:01:53.185Z,1.30
2022-09-23T01:04:40.603Z,1.30
2022-09-23T01:07:27.492Z,1.27
2022-09-23T01:10:16.877Z,1.40
2022-09-23T01:13:26.682Z,1.40
2022-09-23T01:17:27.571Z,1.30
2022-09-23T01:20:16.931Z,1.20
2022-09-23T01:23:28.796Z,1.40
2022-09-23T01:26:39.861Z,1.50
2022-09-23T01:29:35.778Z,1.10
2022-09-23T01:32:36.415Z,1.30
2022-09-23T01:35:30.390Z,1.40
2022-09-23T01:38:22.672Z,1.07
2022-09-23T01:41:33.833Z,1.07
2022-09-23T01:44:35.754Z,1.37
2022-09-23T01:47:35.467Z,1.57
2022-09-23T01:50:52.400Z,1.40
2022-09-23T01:53:45.112Z,1.20
2022-09-23T01:56:53.649Z,1.30
2022-09-23T02:00:10.138Z,1.53
2022-09-23T02:03:20.077Z,1.30
2022-09-23T02:06:29.869Z,1.30
2022-09-23T02:09:24.841Z,1.30
2022-09-23T02:12:17.254Z,1.40
2022-09-23T02:15:18.774Z,1.10
2022-09-23T02:18:13.955Z,1.43
2022-09-23T02:21:08.563Z,1.37
2022-09-23T02:24:10.847Z,1.40
2022-09-23T02:27:18.632Z,1.30
2022-09-23T02:30:21.184Z,1.40
2022-09-23T02:33:20.248Z,1.40
2022-09-23T02:36:19.603Z,1.40
2022-09-23T02:39:11.158Z,1.40
2022-09-23T02:42:13.773Z,1.50
2022-09-23T02:45:00.803Z,1.50
2022-09-23T02:47:53.814Z,1.30
2022-09-23T02:50:40.760Z,1.50
2022-09-23T02:53:28.530Z,1.67
2022-09-23T02:56:18.989Z,1.53
2022-09-23T02:59:06.264Z,1.70
2022-09-23T03:01:54.185Z,1.60
2022-09-23T03:04:58.420Z,1.77
2022-09-23T03:08:08.651Z,1.73
2022-09-23T03:11:11.168Z,1.47
2022-09-23T03:14:26.470Z,1.50
2022-09-23T03:17:33.221Z,1.47
2022-09-23T03:20:30.999Z,1.60
2022-09-23T03:23:29.304Z,1.57
2022-09-23T03:26:23.249Z,1.67
2022-09-23T03:29:11.497Z,1.70
2022-09-23T03:31:59.873Z,1.83
2022-09-23T03:34:50.785Z,1.60
2022-09-23T03:37:56.390Z,1.40
2022-09-23T03:40:47.742Z,1.47
2022-09-23T03:43:38.717Z,1.70
2022-09-23T03:46:28.455Z,1.40
2022-09-23T03:49:18.350Z,1.63
2022-09-23T03:52:06.303Z,1.70
2022-09-23T03:54:53.661Z,1.60
2022-09-23T03:57:40.530Z,1.50
2022-09-23T04:00:27.662Z,1.67
2022-09-23T04:03:14.606Z,1.70
2022-09-23T04:06:01.498Z,1.93
2022-09-23T04:08:48.917Z,1.80
2022-09-23T04:11:35.917Z,1.50
2022-09-23T04:14:23.641Z,1.60
2022-09-23T04:17:11.313Z,1.40
2022-09-23T04:19:58.213Z,1.73
2022-09-23T04:22:45.128Z,1.90
2022-09-23T04:25:32.166Z,1.77
2022-09-23T04:28:19.188Z,1.70
2022-09-23T04:31:07.821Z,1.80
2022-09-23T04:33:55.346Z,1.70
2022-09-23T04:36:42.362Z,1.60
2022-09-23T04:39:29.298Z,1.80
2022-09-23T04:42:16.209Z,1.50
2022-09-23T04:45:04.532Z,1.70
2022-09-23T04:47:51.435Z,1.60
2022-09-23T04:50:39.329Z,1.77
2022-09-23T04:53:26.222Z,1.80
2022-09-23T04:56:18.939Z,1.80
2022-09-23T04:59:06.417Z,2.07
2022-09-23T05:01:54.473Z,1.70
2022-09-23T05:04:41.688Z,1.95
2022-09-23T05:07:28.641Z,2.17
2022-09-23T05:10:16.451Z,1.50
2022-09-23T05:13:03.351Z,1.80
2022-09-23T05:15:56.494Z,1.60
2022-09-23T05:18:45.073Z,1.80
2022-09-23T05:21:32.140Z,1.90
2022-09-23T05:24:19.180Z,1.73
2022-09-23T05:27:09.270Z,1.90
2022-09-23T05:29:56.195Z,1.73
2022-09-23T05:32:43.299Z,1.97
2022-09-23T05:35:30.174Z,1.87
2022-09-23T05:38:17.597Z,1.73
2022-09-23T05:41:10.893Z,1.73
2022-09-23T05:43:59.617Z,1.93
2022-09-23T05:46:46.713Z,2.10
2022-09-23T05:49:58.173Z,1.67
2022-09-23T05:52:41.286Z,1.90
2022-09-23T05:55:28.551Z,1.87
2022-09-23T05:58:15.721Z,1.97
2022-09-23T06:01:13.214Z,2.20
2022-09-23T06:04:01.697Z,1.90
2022-09-23T06:06:48.619Z,1.97
2022-09-23T06:09:36.711Z,1.73
2022-09-23T06:12:25.017Z,1.77
2022-09-23T06:15:12.170Z,2.00
2022-09-23T06:17:59.808Z,1.90
2022-09-23T06:20:46.677Z,2.00
2022-09-23T06:23:34.410Z,2.10
2022-09-23T06:26:23.120Z,2.60
2022-09-23T06:29:14.577Z,1.60
2022-09-23T06:32:02.056Z,1.87
2022-09-23T06:34:51.858Z,2.10
2022-09-23T06:37:39.110Z,2.00
2022-09-23T06:40:26.393Z,2.13
2022-09-23T06:43:13.375Z,1.80
2022-09-23T06:46:01.855Z,1.77
2022-09-23T06:48:50.955Z,1.90
2022-09-23T06:51:37.888Z,1.87
2022-09-23T06:54:28.263Z,2.00
2022-09-23T06:57:15.214Z,1.97
2022-09-23T07:00:02.907Z,2.10
2022-09-23T07:02:50.007Z,1.67
2022-09-23T07:05:38.492Z,1.70
2022-09-23T07:08:27.259Z,2.13
2022-09-23T07:11:15.683Z,2.40
2022-09-23T07:14:02.682Z,2.00
2022-09-23T07:16:50.451Z,1.83
2022-09-23T07:19:37.457Z,1.70
2022-09-23T07:22:25.663Z,1.70
2022-09-23T07:25:13.124Z,1.90
2022-09-23T07:28:00.851Z,1.87
2022-09-23T07:30:58.546Z,2.10
2022-09-23T07:33:47.539Z,1.90
2022-09-23T07:36:37.101Z,1.90
2022-09-23T07:39:24.117Z,1.80
2022-09-23T07:42:13.375Z,1.87
2022-09-23T07:45:00.267Z,2.17
2022-09-23T07:47:47.169Z,2.17
2022-09-23T07:50:34.124Z,1.90
2022-09-23T07:53:21.016Z,1.77
2022-09-23T07:56:07.999Z,2.20
2022-09-23T07:59:00.922Z,2.20
2022-09-23T08:01:50.717Z,1.90
2022-09-23T08:04:37.985Z,2.07
2022-09-23T08:07:25.480Z,1.80
2022-09-23T08:10:12.431Z,1.93
2022-09-23T08:13:03.332Z,2.33
2022-09-23T08:15:55.260Z,2.33
2022-09-23T08:18:45.507Z,1.87
2022-09-23T08:21:33.142Z,2.10
2022-09-23T08:24:21.811Z,1.93
2022-09-23T08:27:10.209Z,1.87
2022-09-23T08:29:57.137Z,2.17
2022-09-23T08:32:44.036Z,2.00
2022-09-23T08:35:31.013Z,2.00
2022-09-23T08:38:18.559Z,2.00
2022-09-23T08:41:08.207Z,2.10
2022-09-23T08:44:01.719Z,2.10
2022-09-23T08:47:10.513Z,1.97
2022-09-23T08:50:06.728Z,1.80
2022-09-23T08:53:01.757Z,2.00
2022-09-23T08:55:51.675Z,2.10
2022-09-23T08:59:00.095Z,1.73
2022-09-23T09:02:01.874Z,2.20
2022-09-23T09:05:00.164Z,2.00
2022-09-23T09:07:47.089Z,2.03
2022-09-23T09:10:43.425Z,1.95
2022-09-23T09:13:34.431Z,2.03
2022-09-23T09:16:59.575Z,2.20
2022-09-23T09:19:47.381Z,1.95
2022-09-23T09:22:49.492Z,2.00
2022-09-23T09:25:39.200Z,2.20
2022-09-23T09:28:48.383Z,1.98
2022-09-23T09:31:45.717Z,1.77
2022-09-23T09:34:41.351Z,1.75
2022-09-23T09:37:39.185Z,2.25
2022-09-23T09:40:26.139Z,2.00
2022-09-23T09:43:23.317Z,2.13
2022-09-23T09:46:29.672Z,2.28
2022-09-23T09:49:41.010Z,2.00
2022-09-23T09:52:29.753Z,2.00
2022-09-23T09:55:28.478Z,2.10
2022-09-23T09:58:16.841Z,1.75
2022-09-23T10:01:03.841Z,1.95
2022-09-23T10:03:56.977Z,2.33
2022-09-23T10:07:07.800Z,1.83
2022-09-23T10:09:58.322Z,1.90
2022-09-23T10:12:49.080Z,2.42
2022-09-23T10:15:45.213Z,1.90
2022-09-23T10:18:37.608Z,2.08
2022-09-23T10:21:27.874Z,2.22
2022-09-23T10:24:23.332Z,1.80
2022-09-23T10:27:11.924Z,2.00
2022-09-23T10:30:03.316Z,1.98
2022-09-23T10:32:51.801Z,2.10
2022-09-23T10:35:57.202Z,1.88
2022-09-23T10:38:45.448Z,1.85
2022-09-23T10:41:58.691Z,1.75
2022-09-23T10:45:29.153Z,2.03
2022-09-23T10:48:31.154Z,2.08
2022-09-23T10:51:26.078Z,1.92
2022-09-23T10:54:36.127Z,1.90
2022-09-23T10:57:42.744Z,1.90
2022-09-23T11:00:42.035Z,2.08
2022-09-23T11:03:45.447Z,2.10
2022-09-23T11:06:54.717Z,2.28
2022-09-23T11:09:50.552Z,1.90
2022-09-23T11:12:57.344Z,2.17
2022-09-23T11:16:08.695Z,2.25
2022-09-23T11:19:25.192Z,1.98
2022-09-23T11:22:24.750Z,1.83
2022-09-23T11:25:33.432Z,1.90
2022-09-23T11:28:39.121Z,1.88
2022-09-23T11:31:59.710Z,1.73
2022-09-23T11:34:57.028Z,2.13
2022-09-23T11:37:48.819Z,2.08
2022-09-23T11:40:41.074Z,2.00
2022-09-23T11:43:36.868Z,1.63
2022-09-23T11:46:44.972Z,1.75
2022-09-23T11:49:39.270Z,1.63
2022-09-23T11:52:40.295Z,1.85
2022-09-23T11:55:32.856Z,2.28
2022-09-23T11:58:26.193Z,1.70
2022-09-23T12:01:27.811Z,1.45
2022-09-23T12:04:28.277Z,1.63
2022-09-23T12:07:19.857Z,1.75
2022-09-23T12:10:09.909Z,1.90
2022-09-23T12:13:25.407Z,1.73
2022-09-23T12:16:27.986Z,1.80
2022-09-23T12:19:46.002Z,1.70
2022-09-23T12:22:45.849Z,2.00
2022-09-23T12:25:46.359Z,1.83
2022-09-23T12:28:44.451Z,1.48
2022-09-23T12:31:40.324Z,1.80
2022-09-23T12:34:44.008Z,1.65
2022-09-23T12:37:37.950Z,1.42
2022-09-23T12:40:40.721Z,1.70
2022-09-23T12:43:32.951Z,1.83
2022-09-23T12:46:25.618Z,1.67
2022-09-23T12:49:27.293Z,1.70
2022-09-23T12:52:26.033Z,1.52
2022-09-23T12:55:22.060Z,1.60
2022-09-23T12:58:39.107Z,1.40
2022-09-23T13:01:27.078Z,1.42
2022-09-23T13:04:52.678Z,1.67
2022-09-23T13:07:46.010Z,1.88
2022-09-23T13:10:39.657Z,1.58
2022-09-23T13:13:32.645Z,1.50
2022-09-23T13:16:35.074Z,1.50
2022-09-23T13:19:27.977Z,1.58
2022-09-23T13:22:50.807Z,1.55
2022-09-23T13:25:41.956Z,1.75
2022-09-23T13:28:33.913Z,1.75
2022-09-23T13:31:21.311Z,1.88
2022-09-23T13:34:12.869Z,1.52
2022-09-23T13:37:22.012Z,1.50
2022-09-23T13:40:28.849Z,1.95
2022-09-23T13:43:26.698Z,1.33
2022-09-23T13:46:20.227Z,1.70
2022-09-23T13:49:21.873Z,1.88
2022-09-23T13:52:26.767Z,1.50
2022-09-23T13:55:25.944Z,1.55
2022-09-23T13:58:18.666Z,1.65
2022-09-23T14:01:10.238Z,1.50
2022-09-23T14:03:57.386Z,1.70
2022-09-23T14:06:44.950Z,1.45
2022-09-23T14:09:34.041Z,1.77
2022-09-23T14:12:24.005Z,1.73
2022-09-23T14:15:18.996Z,1.60
2022-09-23T14:18:07.397Z,1.60
2022-09-23T14:20:54.450Z,1.50
2022-09-23T14:23:47.389Z,1.67
2022-09-23T14:26:34.397Z,1.83
2022-09-23T14:29:26.765Z,1.67
2022-09-23T14:32:24.650Z,1.63
2022-09-23T14:35:28.056Z,1.60
2022-09-23T14:38:41.709Z,1.50
2022-09-23T14:41:33.629Z,1.70
2022-09-23T14:44:25.264Z,1.67
2022-09-23T14:47:14.467Z,1.60
2022-09-23T14:50:20.566Z,1.40
2022-09-23T14:53:32.851Z,1.60
2022-09-23T14:56:21.978Z,1.50
2022-09-23T14:59:33.034Z,1.60
2022-09-23T15:02:31.104Z,1.60
2022-09-23T15:05:24.047Z,1.50
2022-09-23T15:08:19.885Z,1.50
2022-09-23T15:11:08.510Z,1.95
2022-09-23T15:13:55.519Z,1.70
2022-09-23T15:16:42.552Z,1.50
2022-09-23T15:19:31.185Z,1.45
2022-09-23T15:22:18.275Z,1.73
2022-09-23T15:25:31.075Z,1.63
2022-09-23T15:28:18.979Z,1.67
2022-09-23T15:31:08.951Z,1.55
2022-09-23T15:33:56.342Z,2.13
2022-09-23T15:36:43.234Z,1.80
2022-09-23T15:39:36.141Z,1.60
2022-09-23T15:42:23.434Z,1.52
2022-09-23T15:45:11.215Z,1.63
2022-09-23T15:48:03.159Z,1.73
2022-09-23T15:50:51.289Z,1.65
2022-09-23T15:53:38.312Z,1.80
2022-09-23T15:56:26.979Z,1.65
2022-09-23T15:59:13.890Z,1.90
2022-09-23T16:02:06.592Z,1.63
2022-09-23T16:04:53.531Z,1.80
2022-09-23T16:07:40.416Z,1.70
2022-09-23T16:10:27.553Z,1.58
2022-09-23T16:13:15.069Z,1.70
2022-09-23T16:16:02.103Z,1.48
2022-09-23T16:18:51.317Z,1.92
2022-09-23T16:21:40.729Z,1.88
2022-09-23T16:24:28.388Z,2.05
2022-09-23T16:27:18.271Z,1.80
2022-09-23T16:30:06.071Z,1.98
2022-09-23T16:32:53.639Z,2.22
2022-09-23T16:35:40.547Z,1.92
2022-09-23T16:38:28.943Z,1.92
2022-09-23T16:41:15.940Z,1.80
2022-09-23T16:44:06.204Z,2.25
2022-09-23T16:46:53.109Z,2.08
2022-09-23T16:49:41.254Z,2.03
2022-09-23T16:52:31.049Z,2.15
2022-09-23T16:55:18.171Z,2.15
2022-09-23T16:58:05.056Z,2.05
2022-09-23T17:01:20.948Z,2.00
2022-09-23T17:04:10.417Z,1.90
2022-09-23T17:06:57.784Z,2.10
2022-09-23T17:09:44.773Z,1.95
2022-09-23T17:12:33.479Z,2.00
2022-09-23T17:15:23.230Z,2.05
2022-09-23T17:18:10.232Z,2.00
2022-09-23T17:21:01.438Z,1.98
2022-09-23T17:23:48.326Z,2.35
2022-09-23T17:26:35.204Z,2.03
2022-09-23T17:29:22.116Z,2.30
2022-09-23T17:32:09.400Z,2.50
2022-09-23T17:34:56.296Z,2.63
2022-09-23T17:37:43.289Z,2.63
2022-09-23T17:40:30.208Z,2.25
2022-09-23T17:43:24.798Z,2.67
2022-09-23T17:46:17.948Z,2.83
2022-09-23T17:49:07.822Z,2.30
2022-09-23T17:51:56.712Z,2.90
2022-09-23T17:54:43.709Z,2.67
2022-09-23T17:57:30.582Z,2.40
2022-09-23T18:00:18.561Z,1.90
2022-09-23T18:03:05.490Z,2.40
2022-09-23T18:05:52.626Z,2.35
2022-09-23T18:08:41.024Z,2.08
2022-09-23T18:11:29.800Z,2.20
2022-09-23T18:14:22.067Z,2.40
2022-09-23T18:17:09.518Z,2.30
2022-09-23T18:19:56.426Z,2.25
2022-09-23T18:22:43.349Z,2.43
2022-09-23T18:25:39.634Z,2.10
2022-09-23T18:28:34.056Z,2.20
2022-09-23T18:31:22.989Z,2.38
2022-09-23T18:34:16.119Z,2.20
2022-09-23T18:37:03.015Z,2.10
2022-09-23T18:39:49.900Z,2.60
2022-09-23T18:42:40.192Z,4.30
2022-09-23T18:45:27.105Z,8.77
2022-09-23T18:48:32.912Z,10.77
2022-09-23T18:51:23.891Z,15.43
2022-09-23T18:54:10.809Z,12.23
2022-09-23T18:56:59.118Z,12.73
2022-09-23T18:59:47.221Z,17.23
2022-09-23T19:02:34.099Z,18.13
2022-09-23T19:05:20.976Z,14.83
2022-09-23T19:08:08.787Z,16.47
2022-09-23T19:10:56.904Z,15.20
2022-09-23T19:13:44.965Z,13.90
2022-09-23T19:16:31.949Z,13.50
2022-09-23T19:19:18.983Z,9.40
2022-09-23T19:22:06.637Z,6.77
2022-09-23T19:24:53.502Z,5.47
2022-09-23T19:27:40.413Z,4.13
2022-09-23T19:30:27.280Z,5.07
2022-09-23T19:33:14.159Z,3.33
2022-09-23T19:36:01.245Z,4.40
2022-09-23T19:38:48.106Z,3.73
2022-09-23T19:41:35.368Z,3.37
2022-09-23T19:44:24.188Z,3.60
2022-09-23T19:47:15.533Z,2.97
2022-09-23T19:50:02.591Z,3.17
2022-09-23T19:52:51.687Z,3.10
2022-09-23T19:55:38.677Z,3.77
2022-09-23T19:58:26.224Z,3.07
2022-09-23T20:01:14.545Z,2.90
2022-09-23T20:04:02.045Z,3.03
2022-09-23T20:06:49.540Z,3.00
2022-09-23T20:09:36.459Z,3.10
2022-09-23T20:12:23.584Z,3.10
2022-09-23T20:15:11.897Z,3.17
2022-09-23T20:17:58.842Z,2.97
2022-09-23T20:20:54.358Z,2.83
2022-09-23T20:23:42.065Z,3.00
2022-09-23T20:26:47.913Z,3.13
2022-09-23T20:29:34.946Z,2.73
2022-09-23T20:32:22.314Z,2.60
2022-09-23T20:35:09.481Z,2.87
2022-09-23T20:37:56.343Z,2.33
2022-09-23T20:40:43.242Z,3.20
2022-09-23T20:43:33.911Z,3.47
2022-09-23T20:46:23.313Z,2.97
2022-09-23T20:49:10.591Z,2.80
2022-09-23T20:51:57.477Z,2.90
2022-09-23T20:54:44.498Z,3.00
2022-09-23T20:57:31.497Z,3.00
2022-09-23T21:00:18.431Z,3.10
2022-09-23T21:03:05.378Z,2.50
2022-09-23T21:05:52.255Z,3.07
2022-09-23T21:08:39.310Z,2.90
2022-09-23T21:11:28.042Z,2.90
2022-09-23T21:14:15.772Z,3.00
2022-09-23T21:17:02.634Z,3.07
2022-09-23T21:19:49.496Z,3.40
2022-09-23T21:22:36.698Z,3.40
2022-09-23T21:25:28.393Z,3.30
2022-09-23T21:28:16.483Z,4.13
2022-09-23T21:31:07.290Z,4.07
2022-09-23T21:33:55.664Z,3.97
2022-09-23T21:36:44.162Z,4.83
2022-09-23T21:39:31.045Z,6.57
2022-09-23T21:42:17.932Z,7.77
2022-09-23T21:45:06.122Z,8.17
2022-09-23T21:47:53.822Z,10.93
2022-09-23T21:50:41.248Z,8.20
2022-09-23T21:53:29.997Z,5.80
2022-09-23T21:56:22.378Z,6.03
2022-09-23T21:59:09.354Z,5.20
2022-09-23T22:01:56.290Z,5.47
2022-09-23T22:04:43.197Z,4.67
2022-09-23T22:07:30.151Z,4.43
2022-09-23T22:10:17.137Z,4.03
2022-09-23T22:13:09.243Z,3.77
2022-09-23T22:16:05.068Z,4.13
2022-09-23T22:18:55.133Z,3.87
2022-09-23T22:21:43.793Z,4.10
2022-09-23T22:24:30.655Z,4.10
2022-09-23T22:27:19.578Z,3.70
2022-09-23T22:30:26.954Z,3.70
2022-09-23T22:33:16.918Z,3.87
2022-09-23T22:36:03.893Z,3.47
2022-09-23T22:38:58.989Z,3.93
2022-09-23T22:41:47.398Z,3.83
2022-09-23T22:44:34.295Z,4.00
2022-09-23T22:47:22.035Z,4.00
2022-09-23T22:50:09.777Z,3.47
2022-09-23T22:52:57.512Z,3.80
2022-09-23T22:55:44.394Z,3.60
2022-09-23T22:58:32.804Z,4.23
2022-09-23T23:01:19.983Z,4.10
2022-09-23T23:04:08.227Z,4.53
2022-09-23T23:06:56.738Z,4.30
2022-09-23T23:09:43.621Z,4.40
2022-09-23T23:12:30.718Z,3.97
2022-09-23T23:15:17.690Z,4.40
2022-09-23T23:18:04.792Z,4.57
2022-09-23T23:20:51.909Z,4.10
2022-09-23T23:23:44.218Z,3.73
2022-09-23T23:26:33.448Z,4.47
2022-09-23T23:29:21.690Z,4.00
2022-09-23T23:32:09.670Z,3.80
2022-09-23T23:34:56.593Z,4.17
2022-09-23T23:37:43.469Z,4.20
2022-09-23T23:40:30.417Z,4.07
2022-09-23T23:43:18.947Z,3.53
2022-09-23T23:46:07.387Z,3.60
2022-09-23T23:48:55.549Z,3.77
2022-09-23T23:51:42.443Z,4.43
2022-09-23T23:54:29.380Z,4.13
2022-09-23T23:57:16.277Z,3.93
